createdAt,value
2023-04-09T00:14:36.187Z,43.53
2023-04-09T00:25:50.547Z,49.63
2023-04-09T00:50:39.949Z,49.50
2023-04-09T02:25:13.488Z,52.27
2023-04-09T02:30:16.218Z,50.43
2023-04-09T02:35:20.189Z,54.60
2023-04-09T02:40:22.911Z,50.77
2023-04-09T02:45:25.598Z,51.27
2023-04-09T02:50:29.724Z,50.97
2023-04-09T02:55:32.600Z,51.80
2023-04-09T03:00:35.279Z,47.70
2023-04-09T03:05:39.296Z,53.93
2023-04-09T03:10:41.962Z,49.07
2023-04-09T03:15:44.627Z,47.30
2023-04-09T03:20:48.646Z,53.13
2023-04-09T03:26:00.706Z,54.47
2023-04-09T03:31:03.387Z,48.73
2023-04-09T03:36:07.799Z,50.60
2023-04-09T03:41:10.566Z,50.00
2023-04-09T03:46:13.839Z,45.80
2023-04-09T03:51:18.495Z,49.13
2023-04-09T03:56:21.183Z,46.80
2023-04-09T04:01:26.268Z,48.03
2023-04-09T04:06:31.292Z,49.23
2023-04-09T04:11:34.004Z,48.23
2023-04-09T04:16:36.717Z,46.90
2023-04-09T04:21:40.780Z,47.67
2023-04-09T04:26:43.437Z,49.80
2023-04-09T04:31:46.325Z,48.00
2023-04-09T04:36:50.319Z,49.10
2023-04-09T04:41:52.988Z,46.77
2023-04-09T04:46:55.640Z,45.10
2023-04-09T04:51:59.612Z,44.77
2023-04-09T04:57:02.317Z,43.57
2023-04-09T05:02:05.083Z,43.77
2023-04-09T05:07:09.150Z,39.10
2023-04-09T05:12:12.018Z,42.27
2023-04-09T05:17:15.544Z,43.43
2023-04-09T05:22:19.769Z,41.50
2023-04-09T05:27:24.244Z,42.63
2023-04-09T05:32:27.053Z,41.57
2023-04-09T05:37:31.229Z,43.43
2023-04-09T05:42:33.936Z,43.77
2023-04-09T05:47:36.622Z,40.20
2023-04-09T05:52:40.795Z,40.87
2023-04-09T05:57:45.388Z,38.50
2023-04-09T06:02:48.118Z,41.03
2023-04-09T06:07:52.292Z,37.53
2023-04-09T06:12:55.084Z,47.70
2023-04-09T06:17:59.423Z,39.43
2023-04-09T06:23:03.562Z,39.17
2023-04-09T06:28:06.637Z,38.67
2023-04-09T06:33:09.340Z,39.10
2023-04-09T06:38:13.397Z,41.27
2023-04-09T06:43:16.079Z,36.47
2023-04-09T06:48:18.849Z,42.73
2023-04-09T06:53:22.819Z,38.63
2023-04-09T06:58:25.907Z,37.33
2023-04-09T07:03:28.816Z,40.50
2023-04-09T07:08:33.073Z,38.97
2023-04-09T07:13:35.839Z,38.00
2023-04-09T07:18:38.580Z,41.10
2023-04-09T07:23:42.593Z,39.00
2023-04-09T07:28:48.055Z,35.53
2023-04-09T07:33:51.336Z,35.37
2023-04-09T07:38:55.521Z,35.13
2023-04-09T07:43:58.931Z,37.30
2023-04-09T07:49:01.707Z,35.53
2023-04-09T07:54:06.087Z,36.03
2023-04-09T07:59:08.776Z,36.40
2023-04-09T08:04:13.109Z,34.67
2023-04-09T08:09:17.669Z,32.07
2023-04-09T08:14:20.365Z,28.83
2023-04-09T08:19:23.016Z,31.07
2023-04-09T08:24:27.318Z,29.90
2023-04-09T08:29:43.409Z,29.27
2023-04-09T08:34:52.058Z,29.63
2023-04-09T08:40:35.116Z,26.08
2023-04-09T08:51:15.288Z,27.02
2023-04-09T08:56:42.720Z,26.70
2023-04-09T09:01:57.514Z,20.67
2023-04-09T09:07:19.578Z,19.58
2023-04-09T09:13:03.838Z,20.02
2023-04-09T09:18:16.564Z,21.13
2023-04-09T09:24:18.376Z,21.23
2023-04-09T09:29:36.660Z,21.38
2023-04-09T09:34:58.169Z,20.77
2023-04-09T09:41:02.441Z,21.00
2023-04-09T09:46:48.778Z,20.42
2023-04-09T09:52:57.676Z,21.05
2023-04-09T10:04:27.956Z,18.20
2023-04-09T10:10:17.407Z,16.35
2023-04-09T10:15:42.347Z,17.80
2023-04-09T10:21:14.992Z,16.58
2023-04-09T10:26:51.886Z,18.30
2023-04-09T10:37:38.722Z,19.70
2023-04-09T10:42:51.828Z,22.80
2023-04-09T10:48:00.082Z,24.00
2023-04-09T10:53:12.003Z,26.77
2023-04-09T10:58:19.920Z,27.00
2023-04-09T11:03:29.047Z,27.23
2023-04-09T11:08:53.631Z,24.63
2023-04-09T11:14:12.608Z,22.25
2023-04-09T11:19:26.994Z,18.90
2023-04-09T11:24:58.810Z,21.10
2023-04-09T11:30:13.797Z,19.77
2023-04-09T11:35:36.519Z,18.92
2023-04-09T11:40:53.885Z,17.50
2023-04-09T11:46:06.321Z,17.13
2023-04-09T11:51:12.767Z,19.75
2023-04-09T11:56:38.783Z,17.48
2023-04-09T12:02:14.344Z,18.42
2023-04-09T12:07:55.276Z,14.10
2023-04-09T12:14:17.864Z,14.98
2023-04-09T12:25:33.744Z,12.60
2023-04-09T12:30:42.091Z,18.63
2023-04-09T12:36:07.070Z,21.17
2023-04-09T12:41:12.500Z,20.13
2023-04-09T12:52:11.623Z,21.17
2023-04-09T12:57:36.046Z,21.02
2023-04-09T13:14:20.272Z,22.27
2023-04-09T13:19:49.215Z,22.48
2023-04-09T13:25:27.951Z,24.02
2023-04-09T13:30:55.331Z,24.92
2023-04-09T13:36:10.134Z,22.50
2023-04-09T13:41:15.490Z,21.92
2023-04-09T13:46:19.644Z,25.33
2023-04-09T13:51:22.663Z,22.17
2023-04-09T13:56:25.379Z,22.13
2023-04-09T14:01:29.496Z,20.45
2023-04-09T14:06:32.284Z,19.38
2023-04-09T14:11:35.324Z,19.75
2023-04-09T14:16:39.589Z,16.95
2023-04-09T14:21:42.343Z,15.90
2023-04-09T14:26:45.029Z,19.13
2023-04-09T14:31:49.133Z,15.15
2023-04-09T14:36:51.836Z,14.15
2023-04-09T14:41:54.997Z,13.98
2023-04-09T14:46:59.845Z,13.00
2023-04-09T14:52:02.797Z,13.93
2023-04-09T14:57:05.667Z,11.75
2023-04-09T15:02:09.773Z,10.43
2023-04-09T15:07:12.875Z,10.18
2023-04-09T15:12:15.597Z,12.23
2023-04-09T15:17:19.678Z,9.55
2023-04-09T15:22:22.554Z,10.23
2023-04-09T15:27:25.284Z,8.68
2023-04-09T15:32:29.975Z,6.88
2023-04-09T15:37:32.691Z,6.85
2023-04-09T15:42:35.384Z,7.15
2023-04-09T15:47:39.397Z,7.57
2023-04-09T15:52:42.387Z,7.13
2023-04-09T15:57:46.743Z,9.07
2023-04-09T16:02:50.815Z,8.93
2023-04-09T16:07:54.386Z,11.75
2023-04-09T16:12:57.100Z,13.63
2023-04-09T16:18:01.077Z,11.73
2023-04-09T16:23:03.760Z,9.40
2023-04-09T16:28:06.590Z,9.45
2023-04-09T16:33:10.664Z,10.63
2023-04-09T16:38:14.050Z,13.20
2023-04-09T16:43:16.710Z,12.23
2023-04-09T16:48:20.748Z,12.77
2023-04-09T16:53:23.442Z,12.25
2023-04-09T16:58:26.110Z,12.02
2023-04-09T17:03:30.576Z,12.02
2023-04-09T17:08:33.357Z,12.13
2023-04-09T17:13:36.473Z,12.23
2023-04-09T17:18:40.453Z,13.18
2023-04-09T17:23:44.122Z,14.48
2023-04-09T17:28:47.735Z,11.77
2023-04-09T17:33:51.746Z,15.18
2023-04-09T17:38:56.467Z,12.48
2023-04-09T17:43:59.233Z,22.27
2023-04-09T17:49:03.683Z,15.27
2023-04-09T17:54:06.632Z,16.30
2023-04-09T17:59:09.316Z,19.17
2023-04-09T18:04:13.873Z,17.92
2023-04-09T18:09:16.920Z,16.17
2023-04-09T18:14:19.681Z,16.15
2023-04-09T18:19:23.649Z,16.75
2023-04-09T18:24:26.765Z,20.20
2023-04-09T18:29:29.600Z,20.70
2023-04-09T18:34:33.579Z,22.35
2023-04-09T18:39:36.312Z,20.40
2023-04-09T18:44:38.971Z,21.05
2023-04-09T18:49:42.946Z,22.25
2023-04-09T18:54:45.593Z,19.48
2023-04-09T18:59:48.282Z,25.33
2023-04-09T19:04:52.677Z,22.75
2023-04-09T19:09:55.522Z,22.98
2023-04-09T19:15:00.202Z,25.88
2023-04-09T19:20:04.482Z,25.30
2023-04-09T19:25:08.436Z,26.83
2023-04-09T19:30:11.775Z,21.00
2023-04-09T19:35:15.756Z,21.30
2023-04-09T19:40:21.467Z,23.25
2023-04-09T19:45:24.163Z,27.13
2023-04-09T19:50:28.406Z,28.90
2023-04-09T19:55:31.320Z,64.05
2023-04-09T20:00:34.763Z,31.35
2023-04-09T20:05:38.793Z,31.38
2023-04-09T20:10:42.753Z,35.13
2023-04-09T20:15:45.446Z,34.42
2023-04-09T20:20:50.628Z,27.92
2023-04-09T20:25:54.635Z,31.33
2023-04-09T20:30:57.628Z,31.90
2023-04-09T20:36:01.796Z,31.67
2023-04-09T20:41:04.634Z,34.17
2023-04-09T20:46:07.430Z,34.73
2023-04-09T20:51:12.488Z,34.15
2023-04-09T20:56:15.142Z,39.27
2023-04-09T21:01:18.177Z,37.70
2023-04-09T21:06:22.286Z,32.90
2023-04-09T21:11:24.979Z,30.63
2023-04-09T21:16:29.703Z,32.50
2023-04-09T21:21:33.903Z,31.87
2023-04-09T21:26:49.981Z,30.30
2023-04-09T21:31:54.848Z,33.53
2023-04-09T21:36:59.063Z,34.43
2023-04-09T21:42:02.756Z,37.13
2023-04-09T21:47:07.569Z,39.17
2023-04-09T21:52:14.924Z,33.37
2023-04-09T21:57:18.421Z,34.10
2023-04-09T22:02:21.243Z,31.70
2023-04-09T22:07:25.755Z,36.53
2023-04-09T22:12:28.400Z,35.20
2023-04-09T22:17:31.271Z,35.73
2023-04-09T22:22:35.517Z,34.40
2023-04-09T22:27:38.316Z,37.33
2023-04-09T22:32:41.032Z,37.13
2023-04-09T22:37:45.690Z,39.60
2023-04-09T22:42:48.567Z,38.30
2023-04-09T22:47:51.382Z,35.00
2023-04-09T22:52:55.578Z,36.70
2023-04-09T22:57:59.538Z,35.23
2023-04-09T23:03:02.308Z,36.07
2023-04-09T23:08:06.659Z,39.87
2023-04-09T23:13:10.200Z,37.07
2023-04-09T23:18:12.903Z,37.43
2023-04-09T23:23:16.845Z,38.43
2023-04-09T23:28:19.491Z,38.37
2023-04-09T23:33:22.149Z,43.77
2023-04-09T23:38:26.225Z,39.97
2023-04-09T23:43:28.847Z,38.57
2023-04-09T23:48:31.527Z,38.27
2023-04-09T23:53:35.611Z,37.60
2023-04-09T23:58:38.247Z,39.60
